Red Hook, NY

10:08 PM EDT on August 03, 2015 (GMT -0400)
Red Hook | | Change Station
CLOSE
Current Station
Personal Weather Station
Location: Red Hook, NY
Elevation: 256 ft
Nearby Weather Stations

Elev 256 ft 42.01 °N, 73.85 °W | Updated 12 seconds ago

Partly Cloudy
Partly Cloudy
67.6 °F
Feels Like 67.6 °F
N
2.0
Wind Variable Wind from ESE
Gusts 2.0 mph

Today
High -- | Low -- °F
--% Chance of Precip.
Yesterday
High -- | Low -- °F
Precip. -- in
5:50 AM 8:12 PM
Waning Gibbous, 82% visible
Pressure 29.77 in
Visibility 10.0 miles
Clouds Clear
Dew Point 62 °F
Humidity 82%
Rainfall 0.00 in
Snow Depth Not available.
UV 0 out of 12
Pollen 8.40 out of 12
Air Quality Not available.
Flu Activity Not available.
METAR KPOU 040153Z AUTO 00000KT 10SM CLR 24/17 A2978 RMK AO2 SLP080 T02390172

More Conditions Fewer Conditions

Pressure 29.77 in
Visibility 10.0 miles
Clouds Clear
Dew Point 62 °F
Humidity 82%
Rainfall 0.00 in
Snow Depth Not available.
UV 0 out of 12
Pollen 8.40 out of 12
Air Quality Not available.
Flu Activity Not available.
METAR KPOU 040153Z AUTO 00000KT 10SM CLR 24/17 A2978 RMK AO2 SLP080 T02390172

More Conditions Fewer Conditions

10-Day Weather Forecast

×

Almanac

Astronomy

Aug. 03, 2015 Rise Set
Actual Time
Civil Twilight
Nautical Twilight
Astronomical Twilight
Moon
Length of Visible Light
Length of Day
Tomorrow will be .
, % of the Moon is Illuminated

Today's Extremes

State Highs State Lows

Community

WunderPhotos

Upload Photos

1,843,825 photos uploaded!

WunderBlogs® & News

Nearby

Air Quality

  Air Quality AQ Index Pollutant
Not available.

Snow Depth

Station Depth Elevation

Earthquake Activity

City Distance Mag. Time & Date
Minimum magnitude displayed is 2.5.

Coastal Water Temperatures

Place Temperature

Stations

Nearby Weather Stations

Station Location Temp. Windchill Dew Point Humidity Wind Precip. Elev Updated Type